Terminal Aerodrome Forecast
Issued by NWS

Home | Current Version | Previous Version | Text Only | Print | Product List | Glossary On
Versions: 1 2 3 4 5 6 7 8 9 10 11 12 13 14 15 16 17 18 19 20 21 22 23 24 25 26 27 28
000
FTUS41 KRLX 210500 RRA
TAFCKB
TAF
KCKB 210547Z 2106/2206 00000KT 1SM BR SCT008
      TEMPO 2106/2109 4SM BR
     FM210900 00000KT 2SM BR BKN025
      TEMPO 2110/2113 1/4SM FG VV001
     FM211300 00000KT 4SM BR BKN050
     FM211500 VRB03KT P6SM BKN025
     FM211700 24005KT P6SM VCTS BKN025CB
     FM212100 24005KT 6SM TSRA BR BKN025CB
     FM220000 00000KT 5SM TSRA BR BKN025CB
     FM220200 00000KT P6SM VCTS BKN025CB
     FM220500 00000KT 6SM BR BKN040=

USA.gov is the U.S. government's official web portal to all federal, state and local government web resources and services.